Flight Track Log - Related Links

Times and Time Zones

All times are in EDT time to prevent confusion due to time zone crossing. See the FLG4148 flight status page for this flight to view local times or setup timezone preferences in your user account.

Time Position Orientation Groundspeed Altitude Reporting Facility
EDT Latitude Longitude Course Direction KTS MPH feet Rate Location/Type
Sun 06:30:48 PM 43.3469 -84.0206 166° South 281 323 7,000  Level Cleveland Center
Sun 06:31:48 PM 43.2808 -84.0711 209° Southwest 249 287 9,500 2,000 Climbing Cleveland Center
Sun 06:32:48 PM 43.2117 -84.1525 221° Southwest 284 327 11,000 750 Climbing Cleveland Center
Sun 06:33:48 PM 43.1389 -84.2081 209° Southwest 302 348 11,000  Level Cleveland Center
Sun 06:34:00 PM 43.1462 -83.8634 162° South  Level Estimated
Sun 06:34:48 PM 43.0767 -84.1364 140° Southeast 241 277 11,000  Level Cleveland Center
Sun 06:35:00 PM 43.0885 -83.8430 165° South  Level FlightAware Approximate
Sun 06:35:28 PM 43.0389 -84.0717 129° Southeast 307 353 11,100  Level Cleveland Center
Sun 06:36:00 PM 43.0307 -83.8226 166° South  Level FlightAware Approximate
Sun 06:36:48 PM 42.9772 -83.9717 130° Southeast 282 325 11,000  Level Cleveland Center
Sun 06:37:48 PM 42.9117 -83.8631 129° Southeast 299 344 11,100 44 Climbing Cleveland Center
Sun 06:39:03 PM 42.8439 -83.7492 129° Southeast 311 358 11,100 -50 Level Cleveland Center
Sun 06:39:48 PM 42.7867 -83.7094 153° Southeast 311 358 11,000 -629 Descending Cleveland Center
Sun 06:40:48 PM 42.7169 -83.6664 156° South 305 351 10,000 -1,050 Descending Cleveland Center
Sun 06:41:48 PM 42.6308 -83.6142 156° South 311 358 8,900 -1,000 Descending Cleveland Center
Sun 06:42:48 PM 42.5589 -83.5711 156° South 303 349 8,000 -950 Descending Cleveland Center
Sun 06:43:48 PM 42.4953 -83.5317 155° Southeast 275 316 7,000 -900 Descending Cleveland Center
Sun 06:44:48 PM 42.4508 -83.4789 139° Southeast 261 300 6,200 -645 Descending Cleveland Center
Sun 06:45:21 PM 42.4753 -83.4236 59° Northeast 240 276 6,000 -191 Descending Cleveland Center
Sun 06:46:22 PM 42.5039 -83.3517 62° Northeast 204 235 5,900 -545 Descending Cleveland Center
Sun 06:47:11 PM 42.5464 -83.3253 25° Northeast 196 226 5,000 -885 Descending Cleveland Center
Sun 06:48:24 PM 42.5506 -83.2297 87° East 210 242 4,100 -492 Descending Cleveland Center
Sun 06:49:13 PM 42.5225 -83.1836 130° Southeast 204 235 4,000 -49 Descending Cleveland Center
Sun 06:50:26 PM 42.4575 -83.1950 187° South 192 221 4,000 45 Level Cleveland Center
Sun 06:51:27 PM 42.4131 -83.2297 210° Southwest 188 216 4,100 -98 Climbing Cleveland Center
Sun 06:52:28 PM 42.3664 -83.2642 209° Southwest 186 214 3,800 -621 Descending Cleveland Center
Sun 06:53:23 PM 42.3261 -83.2961 210° Southwest 180 207 2,900 -982 Descending Cleveland Center

Login

Don't have an account? Register now (free) for customized features, flight alerts, and more!